Lake Village, AR

12:41 PM CST on February 12, 2016 (GMT -0600)
Lake Hall Rd near Fawnwood Comm Ctr | | Change Station
CLOSE
Current Station
Personal Weather Station
Location: Lake Village, AR
Elevation: 118 ft
Nearby Weather Stations

Elev 118 ft 33.28 °N, 91.24 °W | Updated 56 seconds ago

Clear
Clear
62.4 °F
Feels Like 62.4 °F
N
2.0
Wind Variable Wind from WNW
Gusts 4.0 mph

Today
High -- | Low -- °F
--% Chance of Precip.
Yesterday
High -- | Low -- °F
Precip. -- in
Pressure 30.30 in
Visibility 9.0 miles
Clouds Clear
Dew Point 39 °F
Humidity 43%
Rainfall 0.00 in
Snow Depth Not available.
6:52 AM 5:46 PM
Waxing Crescent, 22% visible
METAR KGLH 121753Z AUTO 33008KT 9SM CLR 14/00 A3027 RMK AO2 SLP259 T01440000 10144 20006 51014
Pressure 30.30 in
Visibility 9.0 miles
Clouds Clear
Dew Point 39 °F
Humidity 43%
Rainfall 0.00 in
Snow Depth Not available.
6:52 AM 5:46 PM
Waxing Crescent, 22% visible
METAR KGLH 121753Z AUTO 33008KT 9SM CLR 14/00 A3027 RMK AO2 SLP259 T01440000 10144 20006 51014

10-Day Weather Forecast

Almanac

Astronomy

Feb. 12, 2016 Rise Set
Actual Time
Civil Twilight
Nautical Twilight
Astronomical Twilight
Moon
Length of Visible Light
Length of Day
Tomorrow will be .
, % of the Moon is Illuminated

Today's Extremes

State Highs State Lows

Community

WunderPhotos

Upload Photos

1,892,369 photos uploaded!

WunderBlog® & News

Nearby

Air Quality

  Air Quality AQ Index Pollutant
Not available.

Snow Depth

Station Depth Elevation

Earthquake Activity

City Distance Mag. Time & Date
Minimum magnitude displayed is 2.5.

Coastal Water Temperatures

Place Temperature

Stations

Nearby Weather Stations

Station Location Temp. Windchill Dew Point Humidity Wind Precip. Elev Updated Type
                   

Watches & Warnings

There are currently no watches in effect.